sensor_id;sensor_type;location;lat;lon;timestamp;pressure;altitude;pressure_sealevel;temperature;humidity
44934;BME280;30667;43.614;1.442;2024-02-04T00:01:13;101660.03;;;6.47;100.00
44934;BME280;30667;43.614;1.442;2024-02-04T00:03:39;101654.66;;;6.47;100.00
44934;BME280;30667;43.614;1.442;2024-02-04T00:06:04;101659.44;;;6.39;100.00
44934;BME280;30667;43.614;1.442;2024-02-04T00:08:30;101662.72;;;6.41;100.00
44934;BME280;30667;43.614;1.442;2024-02-04T00:10:55;101648.25;;;6.48;100.00
44934;BME280;30667;43.614;1.442;2024-02-04T00:13:20;101651.50;;;6.57;100.00
44934;BME280;30667;43.614;1.442;2024-02-04T00:15:46;101649.66;;;6.64;100.00
44934;BME280;30667;43.614;1.442;2024-02-04T00:18:11;101654.44;;;6.62;100.00
44934;BME280;30667;43.614;1.442;2024-02-04T00:20:37;101645.31;;;6.57;100.00
44934;BME280;30667;43.614;1.442;2024-02-04T00:23:02;101649.47;;;6.46;100.00
44934;BME280;30667;43.614;1.442;2024-02-04T00:25:27;101654.44;;;6.42;100.00
44934;BME280;30667;43.614;1.442;2024-02-04T00:27:54;101667.06;;;6.42;100.00
44934;BME280;30667;43.614;1.442;2024-02-04T00:30:19;101659.84;;;6.42;100.00
44934;BME280;30667;43.614;1.442;2024-02-04T00:32:45;101651.75;;;6.42;100.00
44934;BME280;30667;43.614;1.442;2024-02-04T00:35:10;101661.91;;;6.40;100.00
44934;BME280;30667;43.614;1.442;2024-02-04T00:37:36;101651.59;;;6.30;100.00
44934;BME280;30667;43.614;1.442;2024-02-04T00:40:01;101649.53;;;6.26;100.00
44934;BME280;30667;43.614;1.442;2024-02-04T00:42:27;101658.41;;;6.26;100.00
44934;BME280;30667;43.614;1.442;2024-02-04T00:44:52;101656.13;;;6.23;100.00
44934;BME280;30667;43.614;1.442;2024-02-04T00:47:17;101659.00;;;6.28;100.00
44934;BME280;30667;43.614;1.442;2024-02-04T00:49:43;101663.59;;;6.21;100.00
44934;BME280;30667;43.614;1.442;2024-02-04T00:52:08;101665.22;;;6.29;100.00
44934;BME280;30667;43.614;1.442;2024-02-04T00:54:34;101673.72;;;6.26;100.00
44934;BME280;30667;43.614;1.442;2024-02-04T00:56:59;101664.19;;;6.30;100.00
44934;BME280;30667;43.614;1.442;2024-02-04T00:59:25;101665.66;;;6.26;100.00
44934;BME280;30667;43.614;1.442;2024-02-04T01:01:50;101662.53;;;6.22;100.00
44934;BME280;30667;43.614;1.442;2024-02-04T01:04:16;101668.56;;;6.17;100.00
44934;BME280;30667;43.614;1.442;2024-02-04T01:06:41;101661.69;;;5.95;100.00
44934;BME280;30667;43.614;1.442;2024-02-04T01:09:06;101661.09;;;6.06;100.00
44934;BME280;30667;43.614;1.442;2024-02-04T01:11:33;101658.84;;;6.10;100.00
44934;BME280;30667;43.614;1.442;2024-02-04T01:13:59;101665.44;;;6.07;100.00
44934;BME280;30667;43.614;1.442;2024-02-04T01:16:24;101653.88;;;6.13;100.00
44934;BME280;30667;43.614;1.442;2024-02-04T01:18:49;101650.97;;;6.08;100.00
44934;BME280;30667;43.614;1.442;2024-02-04T01:21:14;101648.91;;;6.10;100.00
44934;BME280;30667;43.614;1.442;2024-02-04T01:23:40;101645.16;;;6.05;100.00
44934;BME280;30667;43.614;1.442;2024-02-04T01:26:05;101642.06;;;6.08;100.00
44934;BME280;30667;43.614;1.442;2024-02-04T01:28:30;101641.47;;;6.06;100.00
44934;BME280;30667;43.614;1.442;2024-02-04T01:30:56;101643.72;;;6.09;100.00
44934;BME280;30667;43.614;1.442;2024-02-04T01:33:21;101644.78;;;6.14;100.00
44934;BME280;30667;43.614;1.442;2024-02-04T01:35:47;101643.53;;;6.04;100.00
44934;BME280;30667;43.614;1.442;2024-02-04T01:38:12;101646.84;;;6.06;100.00
44934;BME280;30667;43.614;1.442;2024-02-04T01:40:38;101635.66;;;6.15;100.00
44934;BME280;30667;43.614;1.442;2024-02-04T01:43:03;101643.13;;;6.00;100.00
44934;BME280;30667;43.614;1.442;2024-02-04T01:45:28;101640.44;;;6.07;100.00
44934;BME280;30667;43.614;1.442;2024-02-04T01:47:54;101644.34;;;6.11;100.00
44934;BME280;30667;43.614;1.442;2024-02-04T01:50:20;101654.28;;;6.10;100.00
44934;BME280;30667;43.614;1.442;2024-02-04T01:52:47;101646.03;;;6.05;100.00
44934;BME280;30667;43.614;1.442;2024-02-04T01:55:13;101645.81;;;6.13;100.00
44934;BME280;30667;43.614;1.442;2024-02-04T01:57:39;101653.06;;;6.13;100.00
44934;BME280;30667;43.614;1.442;2024-02-04T02:00:06;101648.28;;;6.15;100.00
44934;BME280;30667;43.614;1.442;2024-02-04T02:02:34;101647.66;;;6.20;100.00
44934;BME280;30667;43.614;1.442;2024-02-04T02:05:01;101649.50;;;6.12;100.00
44934;BME280;30667;43.614;1.442;2024-02-04T02:07:27;101651.78;;;6.15;100.00
44934;BME280;30667;43.614;1.442;2024-02-04T02:09:53;101650.56;;;6.18;100.00
44934;BME280;30667;43.614;1.442;2024-02-04T02:12:24;101655.31;;;6.09;100.00
44934;BME280;30667;43.614;1.442;2024-02-04T02:15:00;101650.13;;;6.01;100.00
44934;BME280;30667;43.614;1.442;2024-02-04T02:17:39;101656.78;;;5.98;100.00
44934;BME280;30667;43.614;1.442;2024-02-04T02:20:17;101653.88;;;6.00;100.00
44934;BME280;30667;43.614;1.442;2024-02-04T02:22:52;101653.47;;;6.03;100.00
44934;BME280;30667;43.614;1.442;2024-02-04T02:25:26;101656.97;;;6.10;100.00
44934;BME280;30667;43.614;1.442;2024-02-04T02:27:52;101658.59;;;5.98;100.00
44934;BME280;30667;43.614;1.442;2024-02-04T02:30:17;101656.50;;;5.87;100.00
44934;BME280;30667;43.614;1.442;2024-02-04T02:32:48;101656.97;;;5.97;100.00
44934;BME280;30667;43.614;1.442;2024-02-04T02:35:15;101646.44;;;6.02;100.00
44934;BME280;30667;43.614;1.442;2024-02-04T02:37:43;101642.47;;;6.05;100.00
44934;BME280;30667;43.614;1.442;2024-02-04T02:40:49;101639.19;;;6.09;100.00
44934;BME280;30667;43.614;1.442;2024-02-04T02:43:17;101632.78;;;5.97;100.00
44934;BME280;30667;43.614;1.442;2024-02-04T02:45:43;101639.78;;;6.05;100.00
44934;BME280;30667;43.614;1.442;2024-02-04T02:48:10;101632.38;;;6.07;100.00
44934;BME280;30667;43.614;1.442;2024-02-04T02:50:37;101633.19;;;6.07;100.00
44934;BME280;30667;43.614;1.442;2024-02-04T02:53:03;101626.16;;;6.06;100.00
44934;BME280;30667;43.614;1.442;2024-02-04T02:55:28;101634.22;;;6.06;100.00
44934;BME280;30667;43.614;1.442;2024-02-04T02:57:53;101635.28;;;5.98;100.00
44934;BME280;30667;43.614;1.442;2024-02-04T03:00:19;101635.69;;;6.02;100.00
44934;BME280;30667;43.614;1.442;2024-02-04T03:02:44;101631.97;;;6.03;100.00
44934;BME280;30667;43.614;1.442;2024-02-04T03:05:10;101644.75;;;6.01;100.00
44934;BME280;30667;43.614;1.442;2024-02-04T03:07:37;101647.44;;;6.01;100.00
44934;BME280;30667;43.614;1.442;2024-02-04T03:10:02;101646.84;;;6.06;100.00
44934;BME280;30667;43.614;1.442;2024-02-04T03:12:28;101650.78;;;6.10;100.00
44934;BME280;30667;43.614;1.442;2024-02-04T03:14:53;101650.97;;;6.08;100.00
44934;BME280;30667;43.614;1.442;2024-02-04T03:17:18;101643.34;;;6.05;100.00
44934;BME280;30667;43.614;1.442;2024-02-04T03:19:47;101640.66;;;6.05;100.00
44934;BME280;30667;43.614;1.442;2024-02-04T03:22:13;101635.06;;;6.00;100.00
44934;BME280;30667;43.614;1.442;2024-02-04T03:24:38;101626.97;;;5.93;100.00
44934;BME280;30667;43.614;1.442;2024-02-04T03:27:03;101621.59;;;5.87;100.00
44934;BME280;30667;43.614;1.442;2024-02-04T03:29:29;101619.09;;;5.85;100.00
44934;BME280;30667;43.614;1.442;2024-02-04T03:31:55;101621.19;;;5.90;100.00
44934;BME280;30667;43.614;1.442;2024-02-04T03:34:21;101617.47;;;5.84;100.00
44934;BME280;30667;43.614;1.442;2024-02-04T03:36:46;101625.13;;;5.94;100.00
44934;BME280;30667;43.614;1.442;2024-02-04T03:39:11;101629.69;;;6.00;100.00
44934;BME280;30667;43.614;1.442;2024-02-04T03:41:37;101628.25;;;5.97;100.00
44934;BME280;30667;43.614;1.442;2024-02-04T03:44:02;101629.03;;;5.91;100.00
44934;BME280;30667;43.614;1.442;2024-02-04T03:46:28;101627.78;;;5.80;100.00
44934;BME280;30667;43.614;1.442;2024-02-04T03:48:53;101628.63;;;5.88;100.00
44934;BME280;30667;43.614;1.442;2024-02-04T03:51:19;101638.31;;;5.82;100.00
44934;BME280;30667;43.614;1.442;2024-02-04T03:53:45;101629.03;;;5.91;100.00
44934;BME280;30667;43.614;1.442;2024-02-04T03:56:10;101634.81;;;5.88;100.00
44934;BME280;30667;43.614;1.442;2024-02-04T03:58:36;101634.81;;;5.81;100.00
44934;BME280;30667;43.614;1.442;2024-02-04T04:01:01;101627.78;;;5.80;100.00
44934;BME280;30667;43.614;1.442;2024-02-04T04:03:27;101625.31;;;5.86;100.00
44934;BME280;30667;43.614;1.442;2024-02-04T04:05:55;101618.69;;;5.81;100.00
44934;BME280;30667;43.614;1.442;2024-02-04T04:08:21;101618.69;;;5.81;100.00
44934;BME280;30667;43.614;1.442;2024-02-04T04:10:46;101619.72;;;5.80;100.00
44934;BME280;30667;43.614;1.442;2024-02-04T04:13:12;101610.84;;;5.87;100.00
44934;BME280;30667;43.614;1.442;2024-02-04T04:15:38;101616.22;;;5.93;100.00
44934;BME280;30667;43.614;1.442;2024-02-04T04:18:04;101613.53;;;5.87;100.00
44934;BME280;30667;43.614;1.442;2024-02-04T04:20:30;101602.16;;;5.91;100.00
44934;BME280;30667;43.614;1.442;2024-02-04T04:22:55;101606.09;;;5.89;100.00
44934;BME280;30667;43.614;1.442;2024-02-04T04:25:20;101608.16;;;5.93;100.00
44934;BME280;30667;43.614;1.442;2024-02-04T04:27:46;101602.19;;;5.98;100.00
44934;BME280;30667;43.614;1.442;2024-02-04T04:30:11;101601.16;;;5.99;100.00
44934;BME280;30667;43.614;1.442;2024-02-04T04:32:37;101588.97;;;5.96;100.00
44934;BME280;30667;43.614;1.442;2024-02-04T04:35:02;101588.13;;;5.89;100.00
44934;BME280;30667;43.614;1.442;2024-02-04T04:37:28;101580.88;;;5.90;100.00
44934;BME280;30667;43.614;1.442;2024-02-04T04:39:53;101587.28;;;5.89;100.00
44934;BME280;30667;43.614;1.442;2024-02-04T04:42:18;101582.94;;;5.94;100.00
44934;BME280;30667;43.614;1.442;2024-02-04T04:44:44;101584.19;;;5.92;100.00
44934;BME280;30667;43.614;1.442;2024-02-04T04:47:09;101591.63;;;5.90;100.00
44934;BME280;30667;43.614;1.442;2024-02-04T04:49:34;101593.91;;;5.93;100.00
44934;BME280;30667;43.614;1.442;2024-02-04T04:52:00;101578.00;;;5.98;100.00
44934;BME280;30667;43.614;1.442;2024-02-04T04:54:27;101582.34;;;6.06;100.00
44934;BME280;30667;43.614;1.442;2024-02-04T04:56:53;101589.19;;;6.02;100.00
44934;BME280;30667;43.614;1.442;2024-02-04T04:59:18;101584.03;;;6.00;100.00
44934;BME280;30667;43.614;1.442;2024-02-04T05:01:47;101597.47;;;6.00;100.00
44934;BME280;30667;43.614;1.442;2024-02-04T05:04:13;101600.28;;;5.92;100.00
44934;BME280;30667;43.614;1.442;2024-02-04T05:06:39;101611.09;;;5.98;100.00
44934;BME280;30667;43.614;1.442;2024-02-04T05:09:05;101610.47;;;6.03;100.00
44934;BME280;30667;43.614;1.442;2024-02-04T05:11:30;101605.53;;;6.00;100.00
44934;BME280;30667;43.614;1.442;2024-02-04T05:13:56;101604.44;;;5.94;100.00
44934;BME280;30667;43.614;1.442;2024-02-04T05:16:21;101602.56;;;5.88;100.00
44934;BME280;30667;43.614;1.442;2024-02-04T05:18:46;101599.91;;;5.88;100.00
44934;BME280;30667;43.614;1.442;2024-02-04T05:21:12;101605.25;;;5.95;100.00
44934;BME280;30667;43.614;1.442;2024-02-04T05:23:37;101605.88;;;5.90;100.00
44934;BME280;30667;43.614;1.442;2024-02-04T05:26:03;101602.81;;;6.07;100.00
44934;BME280;30667;43.614;1.442;2024-02-04T05:28:30;101596.41;;;6.01;100.00
44934;BME280;30667;43.614;1.442;2024-02-04T05:30:55;101609.44;;;6.04;100.00
44934;BME280;30667;43.614;1.442;2024-02-04T05:33:20;101607.34;;;5.93;100.00
44934;BME280;30667;43.614;1.442;2024-02-04T05:35:46;101608.78;;;5.89;100.00
44934;BME280;30667;43.614;1.442;2024-02-04T05:38:11;101595.78;;;5.86;100.00
44934;BME280;30667;43.614;1.442;2024-02-04T05:40:36;101600.09;;;5.87;100.00
44934;BME280;30667;43.614;1.442;2024-02-04T05:43:02;101603.19;;;5.90;100.00
44934;BME280;30667;43.614;1.442;2024-02-04T05:45:33;101600.94;;;5.87;100.00
44934;BME280;30667;43.614;1.442;2024-02-04T05:47:58;101607.13;;;5.88;100.00
44934;BME280;30667;43.614;1.442;2024-02-04T05:50:24;101608.38;;;5.85;100.00
44934;BME280;30667;43.614;1.442;2024-02-04T05:52:49;101612.09;;;5.84;100.00
44934;BME280;30667;43.614;1.442;2024-02-04T05:55:15;101624.06;;;5.81;100.00
44934;BME280;30667;43.614;1.442;2024-02-04T05:57:40;101634.59;;;5.90;100.00
44934;BME280;30667;43.614;1.442;2024-02-04T06:00:07;101636.88;;;5.86;100.00
44934;BME280;30667;43.614;1.442;2024-02-04T06:02:34;101635.22;;;5.85;100.00
44934;BME280;30667;43.614;1.442;2024-02-04T06:04:59;101637.91;;;5.85;100.00
44934;BME280;30667;43.614;1.442;2024-02-04T06:07:24;101649.28;;;5.80;100.00
44934;BME280;30667;43.614;1.442;2024-02-04T06:09:50;101639.38;;;5.88;100.00
44934;BME280;30667;43.614;1.442;2024-02-04T06:12:15;101656.09;;;5.90;100.00
44934;BME280;30667;43.614;1.442;2024-02-04T06:14:41;101664.16;;;5.90;100.00
44934;BME280;30667;43.614;1.442;2024-02-04T06:17:06;101665.41;;;5.87;100.00
44934;BME280;30667;43.614;1.442;2024-02-04T06:19:35;101671.00;;;5.86;100.00
44934;BME280;30667;43.614;1.442;2024-02-04T06:22:00;101669.13;;;5.79;100.00
44934;BME280;30667;43.614;1.442;2024-02-04T06:24:26;101664.97;;;5.77;100.00
44934;BME280;30667;43.614;1.442;2024-02-04T06:26:51;101650.72;;;5.76;100.00
44934;BME280;30667;43.614;1.442;2024-02-04T06:29:17;101650.31;;;5.79;100.00
44934;BME280;30667;43.614;1.442;2024-02-04T06:31:46;101653.00;;;5.79;100.00
44934;BME280;30667;43.614;1.442;2024-02-04T06:34:12;101658.78;;;5.76;100.00
44934;BME280;30667;43.614;1.442;2024-02-04T06:36:37;101661.88;;;5.73;100.00
44934;BME280;30667;43.614;1.442;2024-02-04T06:39:03;101666.00;;;5.62;100.00
44934;BME280;30667;43.614;1.442;2024-02-04T06:41:28;101665.59;;;5.59;100.00
44934;BME280;30667;43.614;1.442;2024-02-04T06:43:54;101663.50;;;5.48;100.00
44934;BME280;30667;43.614;1.442;2024-02-04T06:46:28;101655.03;;;5.51;100.00
44934;BME280;30667;43.614;1.442;2024-02-04T06:48:54;101656.03;;;5.43;100.00
44934;BME280;30667;43.614;1.442;2024-02-04T06:51:20;101659.56;;;5.50;100.00
44934;BME280;30667;43.614;1.442;2024-02-04T06:53:45;101663.50;;;5.54;100.00
44934;BME280;30667;43.614;1.442;2024-02-04T06:56:11;101660.00;;;5.60;100.00
44934;BME280;30667;43.614;1.442;2024-02-04T06:58:43;101668.88;;;5.48;100.00
44934;BME280;30667;43.614;1.442;2024-02-04T07:01:08;101668.47;;;5.51;100.00
44934;BME280;30667;43.614;1.442;2024-02-04T07:03:34;101669.28;;;5.58;100.00
44934;BME280;30667;43.614;1.442;2024-02-04T07:06:00;101672.97;;;5.50;100.00
44934;BME280;30667;43.614;1.442;2024-02-04T07:09:09;101665.38;;;5.54;100.00
44934;BME280;30667;43.614;1.442;2024-02-04T07:11:51;101665.38;;;5.60;100.00
44934;BME280;30667;43.614;1.442;2024-02-04T07:14:16;101678.59;;;5.62;100.00
44934;BME280;30667;43.614;1.442;2024-02-04T07:16:42;101680.47;;;5.68;100.00
44934;BME280;30667;43.614;1.442;2024-02-04T07:19:07;101680.22;;;5.63;100.00
44934;BME280;30667;43.614;1.442;2024-02-04T07:21:33;101678.78;;;5.54;100.00
44934;BME280;30667;43.614;1.442;2024-02-04T07:23:58;101669.25;;;5.44;100.00
44934;BME280;30667;43.614;1.442;2024-02-04T07:26:36;101671.16;;;5.51;100.00
44934;BME280;30667;43.614;1.442;2024-02-04T07:29:01;101674.63;;;5.44;100.00
44934;BME280;30667;43.614;1.442;2024-02-04T07:31:26;101679.81;;;5.46;100.00
44934;BME280;30667;43.614;1.442;2024-02-04T07:33:52;101680.63;;;5.46;100.00
44934;BME280;30667;43.614;1.442;2024-02-04T07:36:17;101679.81;;;5.46;100.00
44934;BME280;30667;43.614;1.442;2024-02-04T07:38:43;101690.75;;;5.44;100.00
44934;BME280;30667;43.614;1.442;2024-02-04T07:41:08;101687.84;;;5.46;100.00
44934;BME280;30667;43.614;1.442;2024-02-04T07:43:33;101696.91;;;5.38;100.00
44934;BME280;30667;43.614;1.442;2024-02-04T07:45:59;101701.47;;;5.44;100.00
44934;BME280;30667;43.614;1.442;2024-02-04T07:48:24;101694.22;;;5.38;100.00
44934;BME280;30667;43.614;1.442;2024-02-04T07:50:50;101699.19;;;5.35;100.00
44934;BME280;30667;43.614;1.442;2024-02-04T07:53:15;101697.09;;;5.30;100.00
44934;BME280;30667;43.614;1.442;2024-02-04T07:55:40;101704.75;;;5.33;100.00
44934;BME280;30667;43.614;1.442;2024-02-04T07:58:06;101694.63;;;5.35;100.00
44934;BME280;30667;43.614;1.442;2024-02-04T08:00:31;101700.41;;;5.32;100.00
44934;BME280;30667;43.614;1.442;2024-02-04T08:02:56;101700.41;;;5.32;100.00
44934;BME280;30667;43.614;1.442;2024-02-04T08:05:22;101700.63;;;5.37;100.00
44934;BME280;30667;43.614;1.442;2024-02-04T08:07:47;101708.09;;;5.49;100.00
44934;BME280;30667;43.614;1.442;2024-02-04T08:10:12;101712.22;;;5.51;100.00
44934;BME280;30667;43.614;1.442;2024-02-04T08:12:40;101715.53;;;5.53;100.00
44934;BME280;30667;43.614;1.442;2024-02-04T08:15:06;101720.31;;;5.58;100.00
44934;BME280;30667;43.614;1.442;2024-02-04T08:17:31;101713.69;;;5.54;100.00
44934;BME280;30667;43.614;1.442;2024-02-04T08:19:58;101718.22;;;5.60;100.00
44934;BME280;30667;43.614;1.442;2024-02-04T08:22:23;101724.44;;;5.60;100.00
44934;BME280;30667;43.614;1.442;2024-02-04T08:24:49;101712.66;;;5.61;100.00
44934;BME280;30667;43.614;1.442;2024-02-04T08:27:14;101721.69;;;5.40;100.00
44934;BME280;30667;43.614;1.442;2024-02-04T08:29:43;101729.16;;;5.58;100.00
44934;BME280;30667;43.614;1.442;2024-02-04T08:32:08;101727.53;;;5.64;100.00
44934;BME280;30667;43.614;1.442;2024-02-04T08:34:34;101712.91;;;5.67;100.00
44934;BME280;30667;43.614;1.442;2024-02-04T08:36:59;101719.91;;;5.61;100.00
44934;BME280;30667;43.614;1.442;2024-02-04T08:39:25;101730.44;;;5.62;100.00
44934;BME280;30667;43.614;1.442;2024-02-04T08:41:51;101733.13;;;5.69;100.00
44934;BME280;30667;43.614;1.442;2024-02-04T08:44:16;101736.63;;;5.63;100.00
44934;BME280;30667;43.614;1.442;2024-02-04T08:46:42;101730.22;;;5.57;100.00
44934;BME280;30667;43.614;1.442;2024-02-04T08:49:07;101738.28;;;5.64;100.00
44934;BME280;30667;43.614;1.442;2024-02-04T08:51:33;101729.44;;;5.70;100.00
44934;BME280;30667;43.614;1.442;2024-02-04T08:53:58;101730.44;;;5.62;100.00
44934;BME280;30667;43.614;1.442;2024-02-04T08:56:23;101726.75;;;5.70;100.00
44934;BME280;30667;43.614;1.442;2024-02-04T08:58:49;101724.44;;;5.60;100.00
44934;BME280;30667;43.614;1.442;2024-02-04T09:01:14;101732.69;;;5.59;100.00
44934;BME280;30667;43.614;1.442;2024-02-04T09:03:39;101738.47;;;5.56;100.00
44934;BME280;30667;43.614;1.442;2024-02-04T09:06:05;101731.06;;;5.64;100.00
44934;BME280;30667;43.614;1.442;2024-02-04T09:08:30;101736.41;;;5.64;100.00
44934;BME280;30667;43.614;1.442;2024-02-04T09:10:56;101732.91;;;5.57;100.00
44934;BME280;30667;43.614;1.442;2024-02-04T09:13:22;101737.69;;;5.75;100.00
44934;BME280;30667;43.614;1.442;2024-02-04T09:15:47;101736.69;;;5.76;100.00
44934;BME280;30667;43.614;1.442;2024-02-04T09:18:12;101733.78;;;5.85;100.00
44934;BME280;30667;43.614;1.442;2024-02-04T09:20:38;101733.19;;;5.82;100.00
44934;BME280;30667;43.614;1.442;2024-02-04T09:23:04;101731.94;;;5.85;100.00
44934;BME280;30667;43.614;1.442;2024-02-04T09:25:30;101731.91;;;5.72;100.00
44934;BME280;30667;43.614;1.442;2024-02-04T09:27:55;101724.66;;;5.66;100.00
44934;BME280;30667;43.614;1.442;2024-02-04T09:30:20;101725.53;;;5.79;100.00
44934;BME280;30667;43.614;1.442;2024-02-04T09:32:46;101723.66;;;5.80;100.00
44934;BME280;30667;43.614;1.442;2024-02-04T09:35:12;101728.84;;;5.81;100.00
44934;BME280;30667;43.614;1.442;2024-02-04T09:37:37;101725.53;;;5.93;100.00
44934;BME280;30667;43.614;1.442;2024-02-04T09:40:03;101720.00;;;6.08;100.00
44934;BME280;30667;43.614;1.442;2024-02-04T09:42:29;101719.97;;;5.94;100.00
44934;BME280;30667;43.614;1.442;2024-02-04T09:44:56;101725.94;;;5.90;100.00
44934;BME280;30667;43.614;1.442;2024-02-04T09:47:22;101728.41;;;5.71;100.00
44934;BME280;30667;43.614;1.442;2024-02-04T09:49:48;101724.69;;;5.79;100.00
44934;BME280;30667;43.614;1.442;2024-02-04T09:52:18;101720.38;;;5.85;100.00
44934;BME280;30667;43.614;1.442;2024-02-04T09:54:46;101723.66;;;5.87;100.00
44934;BME280;30667;43.614;1.442;2024-02-04T09:57:13;101721.19;;;5.92;100.00
44934;BME280;30667;43.614;1.442;2024-02-04T09:59:40;101725.75;;;5.91;100.00
44934;BME280;30667;43.614;1.442;2024-02-04T10:02:06;101724.94;;;5.91;100.00
44934;BME280;30667;43.614;1.442;2024-02-04T10:04:32;101734.06;;;6.03;100.00
44934;BME280;30667;43.614;1.442;2024-02-04T10:06:58;101728.06;;;6.08;100.00
44934;BME280;30667;43.614;1.442;2024-02-04T10:09:24;101730.31;;;5.91;100.00
44934;BME280;30667;43.614;1.442;2024-02-04T10:11:49;101725.13;;;5.89;100.00
44934;BME280;30667;43.614;1.442;2024-02-04T10:14:15;101732.81;;;5.99;100.00
44934;BME280;30667;43.614;1.442;2024-02-04T10:16:41;101730.34;;;6.04;100.00
44934;BME280;30667;43.614;1.442;2024-02-04T10:19:06;101724.34;;;6.09;100.00
44934;BME280;30667;43.614;1.442;2024-02-04T10:21:32;101719.97;;;5.94;100.00
44934;BME280;30667;43.614;1.442;2024-02-04T10:23:57;101725.41;;;6.14;100.00
44934;BME280;30667;43.614;1.442;2024-02-04T10:26:28;101731.59;;;6.35;100.00
44934;BME280;30667;43.614;1.442;2024-02-04T10:28:57;101735.72;;;6.44;100.00
44934;BME280;30667;43.614;1.442;2024-02-04T10:31:23;101735.94;;;6.43;100.00
44934;BME280;30667;43.614;1.442;2024-02-04T10:33:50;101720.63;;;6.36;100.00
44934;BME280;30667;43.614;1.442;2024-02-04T10:36:16;101725.19;;;6.49;100.00
44934;BME280;30667;43.614;1.442;2024-02-04T10:38:42;101715.47;;;6.48;100.00
44934;BME280;30667;43.614;1.442;2024-02-04T10:41:07;101714.00;;;6.52;100.00
44934;BME280;30667;43.614;1.442;2024-02-04T10:43:37;101711.31;;;6.52;100.00
44934;BME280;30667;43.614;1.442;2024-02-04T10:46:17;101714.84;;;6.53;100.00
44934;BME280;30667;43.614;1.442;2024-02-04T10:48:43;101713.56;;;6.55;100.00
44934;BME280;30667;43.614;1.442;2024-02-04T10:51:13;101716.50;;;6.61;100.00
44934;BME280;30667;43.614;1.442;2024-02-04T10:53:41;101715.84;;;6.59;100.00
44934;BME280;30667;43.614;1.442;2024-02-04T10:56:14;101711.50;;;6.51;100.00
44934;BME280;30667;43.614;1.442;2024-02-04T10:58:43;101716.06;;;6.50;100.00
44934;BME280;30667;43.614;1.442;2024-02-04T11:01:10;101723.50;;;6.55;100.00
44934;BME280;30667;43.614;1.442;2024-02-04T11:03:36;101720.00;;;6.54;100.00
44934;BME280;30667;43.614;1.442;2024-02-04T11:06:02;101727.66;;;6.51;100.00
44934;BME280;30667;43.614;1.442;2024-02-04T11:08:28;101732.81;;;6.72;100.00
44934;BME280;30667;43.614;1.442;2024-02-04T11:10:53;101731.78;;;6.73;100.00
44934;BME280;30667;43.614;1.442;2024-02-04T11:13:20;101731.38;;;6.77;100.00
44934;BME280;30667;43.614;1.442;2024-02-04T11:15:48;101729.91;;;6.67;100.00
44934;BME280;30667;43.614;1.442;2024-02-04T11:18:34;101726.81;;;6.70;100.00
44934;BME280;30667;43.614;1.442;2024-02-04T11:21:15;101723.91;;;6.72;100.00
44934;BME280;30667;43.614;1.442;2024-02-04T11:26:19;101719.53;;;6.84;100.00
44934;BME280;30667;43.614;1.442;2024-02-04T11:28:46;101715.63;;;6.73;100.00
44934;BME280;30667;43.614;1.442;2024-02-04T11:31:17;101712.94;;;6.67;100.00
44934;BME280;30667;43.614;1.442;2024-02-04T11:33:42;101703.22;;;6.72;100.00
44934;BME280;30667;43.614;1.442;2024-02-04T11:36:13;101700.34;;;6.61;100.00
44934;BME280;30667;43.614;1.442;2024-02-04T11:38:39;101689.38;;;6.69;100.00
44934;BME280;30667;43.614;1.442;2024-02-04T11:41:05;101690.41;;;6.68;100.00
44934;BME280;30667;43.614;1.442;2024-02-04T11:43:36;101682.94;;;6.70;100.00
44934;BME280;30667;43.614;1.442;2024-02-04T11:46:03;101684.38;;;6.79;100.00
44934;BME280;30667;43.614;1.442;2024-02-04T11:48:30;101676.25;;;6.86;100.00
44934;BME280;30667;43.614;1.442;2024-02-04T11:50:57;101669.22;;;6.91;100.00
44934;BME280;30667;43.614;1.442;2024-02-04T11:53:23;101675.03;;;6.88;100.00
44934;BME280;30667;43.614;1.442;2024-02-04T11:55:52;101672.59;;;6.73;100.00
44934;BME280;30667;43.614;1.442;2024-02-04T11:58:18;101665.72;;;6.91;100.00
44934;BME280;30667;43.614;1.442;2024-02-04T12:00:45;101658.59;;;7.03;100.00
44934;BME280;30667;43.614;1.442;2024-02-04T12:03:11;101660.66;;;7.08;100.00
44934;BME280;30667;43.614;1.442;2024-02-04T12:05:37;101658.03;;;6.95;100.00
44934;BME280;30667;43.614;1.442;2024-02-04T12:08:07;101650.41;;;6.85;100.00
44934;BME280;30667;43.614;1.442;2024-02-04T12:13:46;101641.00;;;7.07;100.00
44934;BME280;30667;43.614;1.442;2024-02-04T12:16:12;101637.25;;;7.15;100.00
44934;BME280;30667;43.614;1.442;2024-02-04T12:18:47;101626.06;;;7.18;100.00
44934;BME280;30667;43.614;1.442;2024-02-04T12:21:13;101622.09;;;7.21;100.00
44934;BME280;30667;43.614;1.442;2024-02-04T12:23:39;101618.75;;;7.25;100.00
44934;BME280;30667;43.614;1.442;2024-02-04T12:26:04;101614.59;;;7.30;100.00
44934;BME280;30667;43.614;1.442;2024-02-04T12:28:30;101610.41;;;7.40;100.00
44934;BME280;30667;43.614;1.442;2024-02-04T12:30:56;101603.09;;;7.48;100.00
44934;BME280;30667;43.614;1.442;2024-02-04T12:33:23;101603.22;;;7.27;100.00
44934;BME280;30667;43.614;1.442;2024-02-04T12:35:52;101598.81;;;7.33;100.00
44934;BME280;30667;43.614;1.442;2024-02-04T12:38:21;101594.03;;;7.35;100.00
44934;BME280;30667;43.614;1.442;2024-02-04T12:40:46;101598.72;;;7.46;100.00
44934;BME280;30667;43.614;1.442;2024-02-04T12:43:12;101601.00;;;7.50;100.00
44934;BME280;30667;43.614;1.442;2024-02-04T12:45:37;101597.03;;;7.52;100.00
44934;BME280;30667;43.614;1.442;2024-02-04T12:48:03;101607.00;;;7.52;100.00
44934;BME280;30667;43.614;1.442;2024-02-04T12:50:29;101598.72;;;7.46;100.00
44934;BME280;30667;43.614;1.442;2024-02-04T12:55:28;101593.66;;;7.32;100.00